sensor_id;sensor_type;location;lat;lon;timestamp;P1;durP1;ratioP1;P2;durP2;ratioP2
36061;SDS011;22123;52.412;20.970;2023-09-08T00:00:27;2.72;;;1.33;;
36061;SDS011;22123;52.412;20.970;2023-09-08T00:02:53;1.25;;;1.08;;
36061;SDS011;22123;52.412;20.970;2023-09-08T00:05:19;3.55;;;1.45;;
36061;SDS011;22123;52.412;20.970;2023-09-08T00:07:45;1.88;;;1.23;;
36061;SDS011;22123;52.412;20.970;2023-09-08T00:10:11;2.58;;;1.67;;
36061;SDS011;22123;52.412;20.970;2023-09-08T00:12:37;2.22;;;1.08;;
36061;SDS011;22123;52.412;20.970;2023-09-08T00:17:29;1.13;;;0.95;;
36061;SDS011;22123;52.412;20.970;2023-09-08T00:19:56;1.05;;;0.98;;
36061;SDS011;22123;52.412;20.970;2023-09-08T00:22:22;2.35;;;0.93;;
36061;SDS011;22123;52.412;20.970;2023-09-08T00:24:48;1.92;;;1.40;;
36061;SDS011;22123;52.412;20.970;2023-09-08T00:27:14;1.58;;;1.48;;
36061;SDS011;22123;52.412;20.970;2023-09-08T00:29:40;3.97;;;1.98;;
36061;SDS011;22123;52.412;20.970;2023-09-08T00:32:06;1.20;;;0.60;;
36061;SDS011;22123;52.412;20.970;2023-09-08T00:34:32;1.30;;;1.02;;
36061;SDS011;22123;52.412;20.970;2023-09-08T00:36:58;2.53;;;1.40;;
36061;SDS011;22123;52.412;20.970;2023-09-08T00:39:23;2.58;;;2.00;;
36061;SDS011;22123;52.412;20.970;2023-09-08T00:41:49;1.55;;;1.45;;
36061;SDS011;22123;52.412;20.970;2023-09-08T00:44:15;0.90;;;0.90;;
36061;SDS011;22123;52.412;20.970;2023-09-08T00:46:41;1.38;;;1.13;;
36061;SDS011;22123;52.412;20.970;2023-09-08T00:49:07;1.15;;;1.05;;
36061;SDS011;22123;52.412;20.970;2023-09-08T00:53:59;1.65;;;1.10;;
36061;SDS011;22123;52.412;20.970;2023-09-08T00:58:50;1.05;;;0.77;;
36061;SDS011;22123;52.412;20.970;2023-09-08T01:01:16;1.95;;;1.25;;
36061;SDS011;22123;52.412;20.970;2023-09-08T01:03:42;0.90;;;0.90;;
36061;SDS011;22123;52.412;20.970;2023-09-08T01:06:08;1.65;;;1.13;;
36061;SDS011;22123;52.412;20.970;2023-09-08T01:08:34;2.90;;;1.30;;
36061;SDS011;22123;52.412;20.970;2023-09-08T01:11:01;1.77;;;1.23;;
36061;SDS011;22123;52.412;20.970;2023-09-08T01:13:27;2.33;;;1.30;;
36061;SDS011;22123;52.412;20.970;2023-09-08T01:15:53;1.90;;;1.02;;
36061;SDS011;22123;52.412;20.970;2023-09-08T01:18:19;0.88;;;0.88;;
36061;SDS011;22123;52.412;20.970;2023-09-08T01:20:55;2.33;;;2.13;;
36061;SDS011;22123;52.412;20.970;2023-09-08T01:23:28;2.53;;;1.83;;
36061;SDS011;22123;52.412;20.970;2023-09-08T01:26:07;1.63;;;1.13;;
36061;SDS011;22123;52.412;20.970;2023-09-08T01:28:35;3.60;;;1.40;;
36061;SDS011;22123;52.412;20.970;2023-09-08T01:31:05;2.75;;;1.60;;
36061;SDS011;22123;52.412;20.970;2023-09-08T01:33:31;2.10;;;1.33;;
36061;SDS011;22123;52.412;20.970;2023-09-08T01:35:57;1.80;;;1.20;;
36061;SDS011;22123;52.412;20.970;2023-09-08T01:38:24;2.90;;;1.10;;
36061;SDS011;22123;52.412;20.970;2023-09-08T01:40:50;0.73;;;0.70;;
36061;SDS011;22123;52.412;20.970;2023-09-08T01:43:16;2.13;;;1.50;;
36061;SDS011;22123;52.412;20.970;2023-09-08T01:45:42;1.38;;;0.65;;
36061;SDS011;22123;52.412;20.970;2023-09-08T01:48:07;2.40;;;1.38;;
36061;SDS011;22123;52.412;20.970;2023-09-08T01:50:33;2.20;;;1.05;;
36061;SDS011;22123;52.412;20.970;2023-09-08T01:52:59;2.72;;;1.75;;
36061;SDS011;22123;52.412;20.970;2023-09-08T01:55:25;2.55;;;0.88;;
36061;SDS011;22123;52.412;20.970;2023-09-08T01:57:51;1.05;;;0.98;;
36061;SDS011;22123;52.412;20.970;2023-09-08T02:00:17;1.33;;;1.23;;
36061;SDS011;22123;52.412;20.970;2023-09-08T02:02:43;2.90;;;1.33;;
36061;SDS011;22123;52.412;20.970;2023-09-08T02:05:09;1.98;;;1.25;;
36061;SDS011;22123;52.412;20.970;2023-09-08T02:07:35;1.33;;;1.08;;
36061;SDS011;22123;52.412;20.970;2023-09-08T02:10:00;1.85;;;1.42;;
36061;SDS011;22123;52.412;20.970;2023-09-08T02:12:26;1.98;;;1.38;;
36061;SDS011;22123;52.412;20.970;2023-09-08T02:14:52;1.58;;;1.40;;
36061;SDS011;22123;52.412;20.970;2023-09-08T02:17:18;1.25;;;1.02;;
36061;SDS011;22123;52.412;20.970;2023-09-08T02:19:44;1.60;;;1.17;;
36061;SDS011;22123;52.412;20.970;2023-09-08T02:22:10;1.42;;;0.98;;
36061;SDS011;22123;52.412;20.970;2023-09-08T02:24:36;1.63;;;1.02;;
36061;SDS011;22123;52.412;20.970;2023-09-08T02:27:02;1.10;;;0.95;;
36061;SDS011;22123;52.412;20.970;2023-09-08T02:29:28;1.55;;;0.95;;
36061;SDS011;22123;52.412;20.970;2023-09-08T02:31:54;1.52;;;0.90;;
36061;SDS011;22123;52.412;20.970;2023-09-08T02:34:20;1.45;;;0.95;;
36061;SDS011;22123;52.412;20.970;2023-09-08T02:36:45;1.23;;;0.90;;
36061;SDS011;22123;52.412;20.970;2023-09-08T02:39:11;1.38;;;0.95;;
36061;SDS011;22123;52.412;20.970;2023-09-08T02:41:37;1.45;;;1.35;;
36061;SDS011;22123;52.412;20.970;2023-09-08T02:44:03;3.15;;;1.00;;
36061;SDS011;22123;52.412;20.970;2023-09-08T02:46:29;1.92;;;1.25;;
36061;SDS011;22123;52.412;20.970;2023-09-08T02:48:55;1.95;;;1.52;;
36061;SDS011;22123;52.412;20.970;2023-09-08T02:51:21;1.35;;;0.93;;
36061;SDS011;22123;52.412;20.970;2023-09-08T02:53:47;2.00;;;0.88;;
36061;SDS011;22123;52.412;20.970;2023-09-08T02:56:13;1.90;;;0.63;;
36061;SDS011;22123;52.412;20.970;2023-09-08T02:58:39;1.02;;;0.93;;
36061;SDS011;22123;52.412;20.970;2023-09-08T03:01:14;1.92;;;1.20;;
36061;SDS011;22123;52.412;20.970;2023-09-08T03:03:41;0.60;;;0.60;;
36061;SDS011;22123;52.412;20.970;2023-09-08T03:06:10;2.08;;;1.13;;
36061;SDS011;22123;52.412;20.970;2023-09-08T03:08:37;1.35;;;1.25;;
36061;SDS011;22123;52.412;20.970;2023-09-08T03:11:03;3.95;;;1.55;;
36061;SDS011;22123;52.412;20.970;2023-09-08T03:13:29;1.95;;;0.77;;
36061;SDS011;22123;52.412;20.970;2023-09-08T03:15:55;1.98;;;1.27;;
36061;SDS011;22123;52.412;20.970;2023-09-08T03:18:21;2.35;;;1.50;;
36061;SDS011;22123;52.412;20.970;2023-09-08T03:20:48;1.17;;;0.98;;
36061;SDS011;22123;52.412;20.970;2023-09-08T03:23:16;1.20;;;0.80;;
36061;SDS011;22123;52.412;20.970;2023-09-08T03:25:43;1.60;;;1.38;;
36061;SDS011;22123;52.412;20.970;2023-09-08T03:28:09;2.20;;;1.50;;
36061;SDS011;22123;52.412;20.970;2023-09-08T03:30:35;2.67;;;1.42;;
36061;SDS011;22123;52.412;20.970;2023-09-08T03:33:02;2.30;;;1.08;;
36061;SDS011;22123;52.412;20.970;2023-09-08T03:35:28;2.25;;;1.13;;
36061;SDS011;22123;52.412;20.970;2023-09-08T03:37:53;1.52;;;1.27;;
36061;SDS011;22123;52.412;20.970;2023-09-08T03:40:19;1.15;;;1.02;;
36061;SDS011;22123;52.412;20.970;2023-09-08T03:42:45;2.28;;;1.23;;
36061;SDS011;22123;52.412;20.970;2023-09-08T03:45:11;3.45;;;1.23;;
36061;SDS011;22123;52.412;20.970;2023-09-08T03:47:37;2.75;;;1.23;;
36061;SDS011;22123;52.412;20.970;2023-09-08T03:50:03;1.05;;;0.95;;
36061;SDS011;22123;52.412;20.970;2023-09-08T03:52:29;1.63;;;1.42;;
36061;SDS011;22123;52.412;20.970;2023-09-08T03:54:55;1.58;;;1.25;;
36061;SDS011;22123;52.412;20.970;2023-09-08T03:57:21;0.98;;;0.90;;
36061;SDS011;22123;52.412;20.970;2023-09-08T03:59:47;1.15;;;1.02;;
36061;SDS011;22123;52.412;20.970;2023-09-08T04:02:12;1.20;;;0.98;;
36061;SDS011;22123;52.412;20.970;2023-09-08T04:04:38;0.73;;;0.73;;
36061;SDS011;22123;52.412;20.970;2023-09-08T04:07:04;2.53;;;1.50;;
36061;SDS011;22123;52.412;20.970;2023-09-08T04:09:30;1.20;;;1.02;;
36061;SDS011;22123;52.412;20.970;2023-09-08T04:11:56;2.00;;;0.85;;
36061;SDS011;22123;52.412;20.970;2023-09-08T04:14:22;1.48;;;0.80;;
36061;SDS011;22123;52.412;20.970;2023-09-08T04:16:48;1.90;;;1.45;;
36061;SDS011;22123;52.412;20.970;2023-09-08T04:19:14;1.17;;;1.00;;
36061;SDS011;22123;52.412;20.970;2023-09-08T04:21:47;1.77;;;1.23;;
36061;SDS011;22123;52.412;20.970;2023-09-08T04:24:13;1.13;;;1.08;;
36061;SDS011;22123;52.412;20.970;2023-09-08T04:26:39;1.88;;;1.38;;
36061;SDS011;22123;52.412;20.970;2023-09-08T04:29:05;2.10;;;1.30;;
36061;SDS011;22123;52.412;20.970;2023-09-08T04:31:31;2.25;;;1.00;;
36061;SDS011;22123;52.412;20.970;2023-09-08T04:33:57;1.90;;;1.23;;
36061;SDS011;22123;52.412;20.970;2023-09-08T04:36:23;2.58;;;1.08;;
36061;SDS011;22123;52.412;20.970;2023-09-08T04:38:49;2.95;;;1.73;;
36061;SDS011;22123;52.412;20.970;2023-09-08T04:41:14;7.78;;;1.00;;
36061;SDS011;22123;52.412;20.970;2023-09-08T04:43:40;2.65;;;1.10;;
36061;SDS011;22123;52.412;20.970;2023-09-08T04:46:06;1.17;;;1.00;;
36061;SDS011;22123;52.412;20.970;2023-09-08T04:48:32;1.77;;;0.70;;
36061;SDS011;22123;52.412;20.970;2023-09-08T04:50:58;3.05;;;1.20;;
36061;SDS011;22123;52.412;20.970;2023-09-08T04:53:24;4.25;;;1.23;;
36061;SDS011;22123;52.412;20.970;2023-09-08T04:55:50;1.20;;;1.10;;
36061;SDS011;22123;52.412;20.970;2023-09-08T04:58:16;3.13;;;1.52;;
36061;SDS011;22123;52.412;20.970;2023-09-08T05:00:41;3.42;;;1.50;;
36061;SDS011;22123;52.412;20.970;2023-09-08T05:03:07;1.33;;;1.23;;
36061;SDS011;22123;52.412;20.970;2023-09-08T05:05:33;1.40;;;1.30;;
36061;SDS011;22123;52.412;20.970;2023-09-08T05:07:59;2.38;;;0.93;;
36061;SDS011;22123;52.412;20.970;2023-09-08T05:10:25;2.10;;;1.15;;
36061;SDS011;22123;52.412;20.970;2023-09-08T05:12:51;1.60;;;1.15;;
36061;SDS011;22123;52.412;20.970;2023-09-08T05:15:17;1.80;;;1.55;;
36061;SDS011;22123;52.412;20.970;2023-09-08T05:17:44;1.52;;;0.98;;
36061;SDS011;22123;52.412;20.970;2023-09-08T05:20:09;0.68;;;0.68;;
36061;SDS011;22123;52.412;20.970;2023-09-08T05:22:35;1.85;;;1.02;;
36061;SDS011;22123;52.412;20.970;2023-09-08T05:25:02;2.95;;;2.08;;
36061;SDS011;22123;52.412;20.970;2023-09-08T05:27:28;2.15;;;1.40;;
36061;SDS011;22123;52.412;20.970;2023-09-08T05:29:54;1.58;;;1.33;;
36061;SDS011;22123;52.412;20.970;2023-09-08T05:32:20;3.67;;;1.55;;
36061;SDS011;22123;52.412;20.970;2023-09-08T05:34:45;1.75;;;1.33;;
36061;SDS011;22123;52.412;20.970;2023-09-08T05:37:11;2.53;;;1.27;;
36061;SDS011;22123;52.412;20.970;2023-09-08T05:39:37;5.55;;;1.85;;
36061;SDS011;22123;52.412;20.970;2023-09-08T05:42:03;1.48;;;1.00;;
36061;SDS011;22123;52.412;20.970;2023-09-08T05:46:55;3.03;;;1.60;;
36061;SDS011;22123;52.412;20.970;2023-09-08T05:49:21;1.80;;;1.17;;
36061;SDS011;22123;52.412;20.970;2023-09-08T05:51:47;1.55;;;1.30;;
36061;SDS011;22123;52.412;20.970;2023-09-08T05:54:12;1.15;;;0.90;;
36061;SDS011;22123;52.412;20.970;2023-09-08T05:59:04;3.65;;;1.70;;
36061;SDS011;22123;52.412;20.970;2023-09-08T06:01:30;1.98;;;1.80;;
36061;SDS011;22123;52.412;20.970;2023-09-08T06:03:56;1.98;;;1.20;;
36061;SDS011;22123;52.412;20.970;2023-09-08T06:06:22;2.67;;;0.95;;
36061;SDS011;22123;52.412;20.970;2023-09-08T06:08:48;2.88;;;1.08;;
36061;SDS011;22123;52.412;20.970;2023-09-08T06:11:14;2.30;;;1.95;;
36061;SDS011;22123;52.412;20.970;2023-09-08T06:13:40;2.30;;;1.40;;
36061;SDS011;22123;52.412;20.970;2023-09-08T06:16:06;2.78;;;1.48;;
36061;SDS011;22123;52.412;20.970;2023-09-08T06:18:32;6.30;;;1.92;;
36061;SDS011;22123;52.412;20.970;2023-09-08T06:20:58;1.60;;;1.23;;
36061;SDS011;22123;52.412;20.970;2023-09-08T06:23:23;3.83;;;1.60;;
36061;SDS011;22123;52.412;20.970;2023-09-08T06:25:51;2.05;;;1.25;;
36061;SDS011;22123;52.412;20.970;2023-09-08T06:28:16;2.55;;;1.73;;
36061;SDS011;22123;52.412;20.970;2023-09-08T06:33:08;4.30;;;1.52;;
36061;SDS011;22123;52.412;20.970;2023-09-08T06:35:34;2.20;;;1.30;;
36061;SDS011;22123;52.412;20.970;2023-09-08T06:40:26;5.30;;;1.90;;
36061;SDS011;22123;52.412;20.970;2023-09-08T06:45:17;2.60;;;1.35;;
36061;SDS011;22123;52.412;20.970;2023-09-08T06:47:43;3.83;;;2.15;;
36061;SDS011;22123;52.412;20.970;2023-09-08T06:50:09;3.63;;;1.33;;
36061;SDS011;22123;52.412;20.970;2023-09-08T06:52:35;2.30;;;1.65;;
36061;SDS011;22123;52.412;20.970;2023-09-08T06:57:27;2.78;;;1.80;;
36061;SDS011;22123;52.412;20.970;2023-09-08T07:02:18;5.13;;;2.22;;
36061;SDS011;22123;52.412;20.970;2023-09-08T07:07:10;3.95;;;1.45;;
36061;SDS011;22123;52.412;20.970;2023-09-08T07:12:03;1.40;;;1.20;;
36061;SDS011;22123;52.412;20.970;2023-09-08T07:14:30;1.98;;;1.85;;
36061;SDS011;22123;52.412;20.970;2023-09-08T07:16:56;3.03;;;1.70;;
36061;SDS011;22123;52.412;20.970;2023-09-08T07:21:47;1.58;;;1.35;;
36061;SDS011;22123;52.412;20.970;2023-09-08T07:26:39;1.35;;;1.10;;
36061;SDS011;22123;52.412;20.970;2023-09-08T07:31:30;1.73;;;1.35;;
36061;SDS011;22123;52.412;20.970;2023-09-08T07:36:22;4.13;;;1.77;;
36061;SDS011;22123;52.412;20.970;2023-09-08T07:41:13;1.55;;;1.25;;
36061;SDS011;22123;52.412;20.970;2023-09-08T07:46:05;2.28;;;1.42;;
36061;SDS011;22123;52.412;20.970;2023-09-08T07:48:34;2.10;;;1.73;;
36061;SDS011;22123;52.412;20.970;2023-09-08T07:53:26;2.15;;;1.60;;
36061;SDS011;22123;52.412;20.970;2023-09-08T07:55:52;1.77;;;1.63;;
36061;SDS011;22123;52.412;20.970;2023-09-08T08:00:44;1.58;;;1.40;;
36061;SDS011;22123;52.412;20.970;2023-09-08T08:03:10;2.03;;;1.50;;
36061;SDS011;22123;52.412;20.970;2023-09-08T08:05:36;4.18;;;2.28;;
36061;SDS011;22123;52.412;20.970;2023-09-08T08:08:02;1.67;;;1.35;;
36061;SDS011;22123;52.412;20.970;2023-09-08T08:10:27;1.48;;;1.38;;
36061;SDS011;22123;52.412;20.970;2023-09-08T08:12:53;2.10;;;1.90;;
36061;SDS011;22123;52.412;20.970;2023-09-08T08:15:20;3.10;;;1.40;;
36061;SDS011;22123;52.412;20.970;2023-09-08T08:17:46;1.63;;;1.50;;
36061;SDS011;22123;52.412;20.970;2023-09-08T08:20:12;2.80;;;1.30;;
36061;SDS011;22123;52.412;20.970;2023-09-08T08:22:38;1.85;;;1.70;;
36061;SDS011;22123;52.412;20.970;2023-09-08T08:25:04;2.05;;;1.48;;
36061;SDS011;22123;52.412;20.970;2023-09-08T08:27:30;1.63;;;1.35;;
36061;SDS011;22123;52.412;20.970;2023-09-08T08:29:57;2.80;;;1.27;;
36061;SDS011;22123;52.412;20.970;2023-09-08T08:32:23;2.45;;;1.20;;
36061;SDS011;22123;52.412;20.970;2023-09-08T08:34:49;2.38;;;1.60;;
36061;SDS011;22123;52.412;20.970;2023-09-08T08:37:15;1.60;;;1.40;;
36061;SDS011;22123;52.412;20.970;2023-09-08T08:39:41;4.43;;;1.58;;
36061;SDS011;22123;52.412;20.970;2023-09-08T08:42:07;1.83;;;1.67;;
36061;SDS011;22123;52.412;20.970;2023-09-08T08:44:34;2.28;;;1.73;;
36061;SDS011;22123;52.412;20.970;2023-09-08T08:47:01;4.20;;;2.00;;
36061;SDS011;22123;52.412;20.970;2023-09-08T08:49:28;3.00;;;1.60;;
36061;SDS011;22123;52.412;20.970;2023-09-08T08:51:56;2.97;;;2.08;;
36061;SDS011;22123;52.412;20.970;2023-09-08T08:54:23;2.25;;;1.90;;
36061;SDS011;22123;52.412;20.970;2023-09-08T08:56:50;1.35;;;1.02;;
36061;SDS011;22123;52.412;20.970;2023-09-08T08:59:16;6.75;;;1.67;;
36061;SDS011;22123;52.412;20.970;2023-09-08T09:01:43;2.30;;;1.90;;
36061;SDS011;22123;52.412;20.970;2023-09-08T09:04:18;5.43;;;1.75;;
36061;SDS011;22123;52.412;20.970;2023-09-08T09:06:46;3.15;;;1.73;;
36061;SDS011;22123;52.412;20.970;2023-09-08T09:09:12;1.73;;;1.50;;
36061;SDS011;22123;52.412;20.970;2023-09-08T09:11:40;1.63;;;1.27;;
36061;SDS011;22123;52.412;20.970;2023-09-08T09:14:05;2.28;;;1.23;;
36061;SDS011;22123;52.412;20.970;2023-09-08T09:16:38;3.17;;;1.80;;
36061;SDS011;22123;52.412;20.970;2023-09-08T09:19:04;2.35;;;1.77;;
36061;SDS011;22123;52.412;20.970;2023-09-08T09:21:46;2.63;;;1.98;;
36061;SDS011;22123;52.412;20.970;2023-09-08T09:24:17;2.47;;;1.95;;
36061;SDS011;22123;52.412;20.970;2023-09-08T09:26:53;1.38;;;1.27;;
36061;SDS011;22123;52.412;20.970;2023-09-08T09:29:19;2.97;;;2.00;;
36061;SDS011;22123;52.412;20.970;2023-09-08T09:31:51;3.90;;;1.98;;
36061;SDS011;22123;52.412;20.970;2023-09-08T09:34:18;3.05;;;1.30;;
36061;SDS011;22123;52.412;20.970;2023-09-08T09:36:44;2.80;;;1.63;;
36061;SDS011;22123;52.412;20.970;2023-09-08T09:39:10;2.17;;;2.05;;
36061;SDS011;22123;52.412;20.970;2023-09-08T09:41:36;3.53;;;1.83;;
36061;SDS011;22123;52.412;20.970;2023-09-08T09:44:02;8.15;;;2.28;;
36061;SDS011;22123;52.412;20.970;2023-09-08T09:46:28;3.65;;;1.83;;
36061;SDS011;22123;52.412;20.970;2023-09-08T09:48:54;2.25;;;1.85;;
36061;SDS011;22123;52.412;20.970;2023-09-08T09:51:20;2.95;;;1.67;;
36061;SDS011;22123;52.412;20.970;2023-09-08T09:53:46;2.30;;;2.20;;
36061;SDS011;22123;52.412;20.970;2023-09-08T09:56:16;2.67;;;1.90;;
36061;SDS011;22123;52.412;20.970;2023-09-08T09:58:43;1.65;;;1.55;;
36061;SDS011;22123;52.412;20.970;2023-09-08T10:01:10;3.00;;;1.73;;
36061;SDS011;22123;52.412;20.970;2023-09-08T10:03:39;2.42;;;1.60;;
36061;SDS011;22123;52.412;20.970;2023-09-08T10:06:05;2.40;;;1.98;;
36061;SDS011;22123;52.412;20.970;2023-09-08T10:08:33;1.35;;;1.23;;
36061;SDS011;22123;52.412;20.970;2023-09-08T10:11:00;5.15;;;1.77;;
36061;SDS011;22123;52.412;20.970;2023-09-08T10:13:31;2.25;;;1.95;;
36061;SDS011;22123;52.412;20.970;2023-09-08T10:15:59;2.28;;;1.80;;
36061;SDS011;22123;52.412;20.970;2023-09-08T10:18:28;2.97;;;2.03;;
36061;SDS011;22123;52.412;20.970;2023-09-08T10:20:54;2.67;;;1.95;;
36061;SDS011;22123;52.412;20.970;2023-09-08T10:23:36;2.13;;;1.90;;
36061;SDS011;22123;52.412;20.970;2023-09-08T10:26:05;3.22;;;1.80;;
36061;SDS011;22123;52.412;20.970;2023-09-08T10:28:35;1.85;;;1.55;;
36061;SDS011;22123;52.412;20.970;2023-09-08T10:31:02;3.03;;;2.22;;
36061;SDS011;22123;52.412;20.970;2023-09-08T10:33:30;2.83;;;2.45;;
36061;SDS011;22123;52.412;20.970;2023-09-08T10:35:57;2.60;;;2.40;;
36061;SDS011;22123;52.412;20.970;2023-09-08T10:38:25;2.10;;;1.90;;
36061;SDS011;22123;52.412;20.970;2023-09-08T10:40:53;2.13;;;1.92;;
36061;SDS011;22123;52.412;20.970;2023-09-08T10:43:39;2.28;;;1.77;;
36061;SDS011;22123;52.412;20.970;2023-09-08T10:46:08;4.05;;;2.22;;
36061;SDS011;22123;52.412;20.970;2023-09-08T10:48:44;1.92;;;1.58;;
36061;SDS011;22123;52.412;20.970;2023-09-08T10:51:13;2.03;;;1.80;;
36061;SDS011;22123;52.412;20.970;2023-09-08T10:53:40;2.40;;;2.20;;
36061;SDS011;22123;52.412;20.970;2023-09-08T10:56:06;2.50;;;1.85;;
36061;SDS011;22123;52.412;20.970;2023-09-08T10:58:33;2.17;;;2.05;;
36061;SDS011;22123;52.412;20.970;2023-09-08T11:01:00;2.63;;;2.40;;
36061;SDS011;22123;52.412;20.970;2023-09-08T11:03:27;2.30;;;2.10;;
36061;SDS011;22123;52.412;20.970;2023-09-08T11:05:53;2.55;;;2.35;;
36061;SDS011;22123;52.412;20.970;2023-09-08T11:08:19;2.25;;;2.05;;
36061;SDS011;22123;52.412;20.970;2023-09-08T11:10:45;2.40;;;2.20;;
36061;SDS011;22123;52.412;20.970;2023-09-08T11:13:11;3.03;;;1.92;;
36061;SDS011;22123;52.412;20.970;2023-09-08T11:15:37;2.08;;;1.90;;
36061;SDS011;22123;52.412;20.970;2023-09-08T11:18:06;3.58;;;2.13;;
36061;SDS011;22123;52.412;20.970;2023-09-08T11:20:32;2.33;;;2.13;;
36061;SDS011;22123;52.412;20.970;2023-09-08T11:22:59;2.47;;;2.15;;
36061;SDS011;22123;52.412;20.970;2023-09-08T11:25:25;2.75;;;2.55;;
36061;SDS011;22123;52.412;20.970;2023-09-08T11:27:51;2.50;;;2.22;;
36061;SDS011;22123;52.412;20.970;2023-09-08T11:30:17;2.13;;;1.77;;
36061;SDS011;22123;52.412;20.970;2023-09-08T11:32:44;2.70;;;2.38;;
36061;SDS011;22123;52.412;20.970;2023-09-08T11:35:10;3.97;;;2.50;;
36061;SDS011;22123;52.412;20.970;2023-09-08T11:37:36;2.55;;;2.10;;
36061;SDS011;22123;52.412;20.970;2023-09-08T11:40:03;2.45;;;2.03;;
36061;SDS011;22123;52.412;20.970;2023-09-08T11:42:30;2.17;;;2.05;;
36061;SDS011;22123;52.412;20.970;2023-09-08T11:44:56;2.58;;;2.25;;
36061;SDS011;22123;52.412;20.970;2023-09-08T11:47:22;2.35;;;2.15;;
36061;SDS011;22123;52.412;20.970;2023-09-08T11:49:48;3.08;;;2.60;;
36061;SDS011;22123;52.412;20.970;2023-09-08T11:52:14;4.78;;;2.28;;
36061;SDS011;22123;52.412;20.970;2023-09-08T11:54:40;2.90;;;2.50;;
36061;SDS011;22123;52.412;20.970;2023-09-08T11:57:06;2.03;;;1.88;;
36061;SDS011;22123;52.412;20.970;2023-09-08T11:59:32;2.40;;;2.00;;
36061;SDS011;22123;52.412;20.970;2023-09-08T12:01:59;2.60;;;2.05;;
36061;SDS011;22123;52.412;20.970;2023-09-08T12:04:25;2.90;;;2.20;;
36061;SDS011;22123;52.412;20.970;2023-09-08T12:06:52;2.17;;;2.00;;
36061;SDS011;22123;52.412;20.970;2023-09-08T12:09:22;3.75;;;1.90;;
36061;SDS011;22123;52.412;20.970;2023-09-08T12:11:48;2.72;;;2.28;;
36061;SDS011;22123;52.412;20.970;2023-09-08T12:14:15;2.53;;;2.30;;
36061;SDS011;22123;52.412;20.970;2023-09-08T12:16:41;4.10;;;2.10;;
36061;SDS011;22123;52.412;20.970;2023-09-08T12:19:08;2.95;;;2.13;;
36061;SDS011;22123;52.412;20.970;2023-09-08T12:21:54;2.35;;;1.98;;
36061;SDS011;22123;52.412;20.970;2023-09-08T12:27:13;2.42;;;2.13;;
36061;SDS011;22123;52.412;20.970;2023-09-08T12:29:39;3.33;;;2.15;;
36061;SDS011;22123;52.412;20.970;2023-09-08T12:32:05;4.50;;;2.40;;
36061;SDS011;22123;52.412;20.970;2023-09-08T12:34:32;1.75;;;1.65;;
36061;SDS011;22123;52.412;20.970;2023-09-08T12:36:58;2.15;;;1.92;;
36061;SDS011;22123;52.412;20.970;2023-09-08T12:39:24;2.63;;;2.22;;
36061;SDS011;22123;52.412;20.970;2023-09-08T12:41:50;2.65;;;2.00;;
36061;SDS011;22123;52.412;20.970;2023-09-08T12:44:16;2.10;;;1.90;;
36061;SDS011;22123;52.412;20.970;2023-09-08T12:46:41;2.08;;;1.75;;
36061;SDS011;22123;52.412;20.970;2023-09-08T12:49:07;2.17;;;1.98;;
36061;SDS011;22123;52.412;20.970;2023-09-08T12:51:33;2.72;;;1.75;;
36061;SDS011;22123;52.412;20.970;2023-09-08T12:53:59;2.42;;;2.22;;
36061;SDS011;22123;52.412;20.970;2023-09-08T12:56:25;2.20;;;1.90;;
36061;SDS011;22123;52.412;20.970;2023-09-08T12:58:51;2.25;;;1.65;;
36061;SDS011;22123;52.412;20.970;2023-09-08T13:01:17;2.45;;;2.25;;
36061;SDS011;22123;52.412;20.970;2023-09-08T13:03:43;2.38;;;1.60;;
36061;SDS011;22123;52.412;20.970;2023-09-08T13:06:08;2.95;;;1.65;;
36061;SDS011;22123;52.412;20.970;2023-09-08T13:08:34;2.35;;;1.95;;
36061;SDS011;22123;52.412;20.970;2023-09-08T13:11:00;2.42;;;2.22;;
36061;SDS011;22123;52.412;20.970;2023-09-08T13:13:26;2.67;;;2.20;;
36061;SDS011;22123;52.412;20.970;2023-09-08T13:15:52;2.55;;;2.17;;
36061;SDS011;22123;52.412;20.970;2023-09-08T13:18:18;3.17;;;2.08;;
36061;SDS011;22123;52.412;20.970;2023-09-08T13:20:44;1.88;;;1.77;;
36061;SDS011;22123;52.412;20.970;2023-09-08T13:23:10;2.10;;;1.85;;
36061;SDS011;22123;52.412;20.970;2023-09-08T13:25:35;2.05;;;1.85;;
36061;SDS011;22123;52.412;20.970;2023-09-08T13:28:01;2.53;;;1.75;;
36061;SDS011;22123;52.412;20.970;2023-09-08T13:30:27;2.35;;;1.67;;
36061;SDS011;22123;52.412;20.970;2023-09-08T13:32:53;2.13;;;1.92;;
36061;SDS011;22123;52.412;20.970;2023-09-08T13:35:19;2.83;;;1.83;;
36061;SDS011;22123;52.412;20.970;2023-09-08T13:37:45;3.08;;;1.90;;
36061;SDS011;22123;52.412;20.970;2023-09-08T13:40:11;3.28;;;1.75;;
36061;SDS011;22123;52.412;20.970;2023-09-08T13:42:37;1.45;;;1.35;;
36061;SDS011;22123;52.412;20.970;2023-09-08T13:45:03;3.22;;;2.10;;
36061;SDS011;22123;52.412;20.970;2023-09-08T13:47:29;2.58;;;2.17;;
36061;SDS011;22123;52.412;20.970;2023-09-08T13:49:55;1.70;;;1.60;;
36061;SDS011;22123;52.412;20.970;2023-09-08T13:52:21;1.98;;;1.77;;
36061;SDS011;22123;52.412;20.970;2023-09-08T13:54:47;2.13;;;1.70;;
36061;SDS011;22123;52.412;20.970;2023-09-08T13:57:13;1.95;;;1.70;;
36061;SDS011;22123;52.412;20.970;2023-09-08T13:59:39;1.88;;;1.55;;
36061;SDS011;22123;52.412;20.970;2023-09-08T14:02:05;2.08;;;1.88;;
36061;SDS011;22123;52.412;20.970;2023-09-08T14:04:31;1.80;;;1.70;;
36061;SDS011;22123;52.412;20.970;2023-09-08T14:06:57;2.00;;;1.50;;
36061;SDS011;22123;52.412;20.970;2023-09-08T14:09:23;1.98;;;1.70;;
36061;SDS011;22123;52.412;20.970;2023-09-08T14:11:48;6.10;;;1.60;;
36061;SDS011;22123;52.412;20.970;2023-09-08T14:14:14;1.90;;;1.65;;
36061;SDS011;22123;52.412;20.970;2023-09-08T14:16:40;3.70;;;1.95;;
36061;SDS011;22123;52.412;20.970;2023-09-08T14:19:06;1.75;;;1.63;;
36061;SDS011;22123;52.412;20.970;2023-09-08T14:21:32;1.73;;;1.63;;
36061;SDS011;22123;52.412;20.970;2023-09-08T14:23:58;4.25;;;1.45;;
36061;SDS011;22123;52.412;20.970;2023-09-08T14:26:24;2.28;;;1.70;;
36061;SDS011;22123;52.412;20.970;2023-09-08T14:28:50;2.05;;;1.90;;
36061;SDS011;22123;52.412;20.970;2023-09-08T14:31:15;1.75;;;1.52;;
36061;SDS011;22123;52.412;20.970;2023-09-08T14:33:41;1.70;;;1.60;;
36061;SDS011;22123;52.412;20.970;2023-09-08T14:36:07;1.80;;;1.70;;
36061;SDS011;22123;52.412;20.970;2023-09-08T14:38:33;2.22;;;1.73;;
36061;SDS011;22123;52.412;20.970;2023-09-08T14:41:00;2.10;;;1.98;;
36061;SDS011;22123;52.412;20.970;2023-09-08T14:43:27;2.30;;;2.10;;
36061;SDS011;22123;52.412;20.970;2023-09-08T14:45:53;1.98;;;1.88;;
36061;SDS011;22123;52.412;20.970;2023-09-08T14:48:21;2.17;;;1.98;;
36061;SDS011;22123;52.412;20.970;2023-09-08T14:50:47;2.30;;;2.10;;
36061;SDS011;22123;52.412;20.970;2023-09-08T14:53:13;3.40;;;2.08;;
36061;SDS011;22123;52.412;20.970;2023-09-08T14:55:38;2.13;;;1.40;;
36061;SDS011;22123;52.412;20.970;2023-09-08T14:58:05;2.53;;;2.10;;
36061;SDS011;22123;52.412;20.970;2023-09-08T15:00:30;1.67;;;1.58;;
36061;SDS011;22123;52.412;20.970;2023-09-08T15:02:56;1.92;;;1.83;;
36061;SDS011;22123;52.412;20.970;2023-09-08T15:05:22;1.67;;;1.58;;
36061;SDS011;22123;52.412;20.970;2023-09-08T15:07:48;2.42;;;2.20;;
36061;SDS011;22123;52.412;20.970;2023-09-08T15:10:14;2.90;;;1.60;;
36061;SDS011;22123;52.412;20.970;2023-09-08T15:12:40;1.88;;;1.77;;
36061;SDS011;22123;52.412;20.970;2023-09-08T15:15:06;2.10;;;1.85;;
36061;SDS011;22123;52.412;20.970;2023-09-08T15:17:32;1.98;;;1.77;;
36061;SDS011;22123;52.412;20.970;2023-09-08T15:19:58;2.20;;;1.85;;